Time;durP1;ratioP1;P1;durP2;ratioP2;P2;SDS_P1;SDS_P2;PMS_P1;PMS_P2;Temp;Humidity;BMP_temperature;BMP_pressure;BME280_temperature;BME280_humidity;BME280_pressure;Samples;Min_cycle;Max_cycle;Signal;HPM_P1;HPM_P2
2023/12/24 00:01:16;;;;;;;9.50;4.40;;;;;;;-0.38;58.53;99654.73;107477;1251;106645;-65
2023/12/24 00:04:00;;;;;;;;;;;;;;;-0.40;58.71;99660.65;107578;1251;95680;-66
2023/12/24 00:06:29;;;;;;;8.40;4.00;;;;;;;-0.43;58.70;99659.27;107577;1251;95664;-64
2023/12/24 00:08:57;;;;;;;9.20;4.10;;;;;;;-0.45;58.78;99662.05;107558;1251;108970;-67
2023/12/24 00:11:25;;;;;;;9.30;4.00;;;;;;;-0.48;58.84;99669.23;107491;1250;107066;-67
2023/12/24 00:13:54;;;;;;;7.50;3.80;;;;;;;-0.50;58.74;99670.73;107496;1251;107839;-66
2023/12/24 00:16:22;;;;;;;7.40;3.80;;;;;;;-0.51;58.61;99671.17;107443;1253;95231;-66
2023/12/24 00:18:51;;;;;;;8.10;4.20;;;;;;;-0.51;58.25;99675.73;107510;1251;95826;-66
2023/12/24 00:21:19;;;;;;;5.60;3.80;;;;;;;-0.50;58.35;99678.00;107504;1251;109675;-64
2023/12/24 00:23:49;;;;;;;7.60;3.90;;;;;;;-0.50;58.45;99682.39;107554;1251;108405;-65
2023/12/24 00:26:17;;;;;;;7.40;3.70;;;;;;;-0.50;58.38;99688.54;107554;1251;108467;-64
2023/12/24 00:28:47;;;;;;;9.60;3.70;;;;;;;-0.50;58.23;99690.70;107447;1251;95225;-65
2023/12/24 00:31:16;;;;;;;7.30;3.20;;;;;;;-0.50;58.07;99693.30;107590;1254;95729;-65
2023/12/24 00:33:44;;;;;;;8.70;3.70;;;;;;;-0.50;57.90;99693.62;107587;1251;109273;-67
2023/12/24 00:36:13;;;;;;;6.30;3.60;;;;;;;-0.50;58.06;99696.83;107549;1251;107359;-65
2023/12/24 00:38:41;;;;;;;4.80;3.10;;;;;;;-0.49;58.24;99700.66;107551;1251;107167;-66
2023/12/24 00:41:09;;;;;;;7.80;3.00;;;;;;;-0.47;57.74;99705.45;107572;1254;96484;-64
2023/12/24 00:43:38;;;;;;;6.90;3.30;;;;;;;-0.45;57.81;99705.71;107572;1256;96555;-64
2023/12/24 00:46:07;;;;;;;14.20;3.60;;;;;;;-0.45;57.87;99708.85;107513;1251;110107;-66
2023/12/24 00:48:35;;;;;;;9.40;2.90;;;;;;;-0.44;57.66;99710.91;107504;1251;108066;-67
2023/12/24 00:51:04;;;;;;;6.90;3.20;;;;;;;-0.43;58.09;99713.16;107514;1254;108325;-66
2023/12/24 00:53:33;;;;;;;9.10;2.80;;;;;;;-0.43;58.17;99714.02;107484;1253;96553;-66
2023/12/24 00:56:01;;;;;;;4.50;2.60;;;;;;;-0.45;57.68;99718.55;107613;1251;97003;-66
2023/12/24 00:58:30;;;;;;;5.40;2.70;;;;;;;-0.47;57.43;99725.20;107616;1252;109830;-66
2023/12/24 01:00:58;;;;;;;4.90;2.50;;;;;;;-0.48;57.46;99726.30;107632;1251;107707;-66
2023/12/24 01:03:26;;;;;;;4.30;2.20;;;;;;;-0.50;57.56;99729.73;107601;1255;107195;-65
2023/12/24 01:05:55;;;;;;;3.90;2.40;;;;;;;-0.51;57.25;99737.42;107643;1251;96556;-65
2023/12/24 01:08:23;;;;;;;5.30;2.30;;;;;;;-0.50;57.19;99734.34;107556;1251;96600;-66
2023/12/24 01:10:52;;;;;;;4.10;2.40;;;;;;;-0.46;57.21;99742.59;107496;1251;111490;-66
2023/12/24 01:13:21;;;;;;;5.60;3.10;;;;;;;-0.43;57.43;99751.72;107519;1251;108621;-66
2023/12/24 01:15:49;;;;;;;5.20;3.30;;;;;;;-0.40;57.32;99754.52;107629;1251;109229;-65
2023/12/24 01:18:17;;;;;;;6.00;3.00;;;;;;;-0.37;57.42;99756.87;107644;1255;96608;-66
2023/12/24 01:20:46;;;;;;;7.00;4.30;;;;;;;-0.35;57.45;99758.98;107521;1250;96481;-65
2023/12/24 01:23:15;;;;;;;9.90;4.40;;;;;;;-0.35;57.53;99766.55;107642;1251;110728;-67
2023/12/24 01:25:43;;;;;;;16.50;4.60;;;;;;;-0.38;58.19;99770.83;107665;1251;109234;-66
2023/12/24 01:28:11;;;;;;;21.90;5.10;;;;;;;-0.45;58.46;99778.61;107587;1251;108245;-65
2023/12/24 01:30:40;;;;;;;10.10;4.80;;;;;;;-0.51;58.82;99781.45;107609;1254;96562;-65
2023/12/24 01:33:09;;;;;;;11.60;4.60;;;;;;;-0.56;59.09;99792.83;107561;1251;96525;-66
2023/12/24 01:35:37;;;;;;;7.20;4.40;;;;;;;-0.62;59.74;99808.16;107512;1257;110887;-65
2023/12/24 01:38:06;;;;;;;25.00;10.10;;;;;;;-0.69;59.75;99806.60;107606;1251;107311;-66
2023/12/24 01:40:34;;;;;;;12.70;5.40;;;;;;;-0.73;60.10;99807.02;107613;1255;107985;-67
2023/12/24 01:43:03;;;;;;;9.40;4.10;;;;;;;-0.82;60.18;99806.77;107577;1251;96482;-65
2023/12/24 01:45:31;;;;;;;12.80;4.50;;;;;;;-0.90;60.38;99805.84;107659;1251;96475;-67
2023/12/24 01:48:00;;;;;;;5.80;3.10;;;;;;;-0.93;60.01;99799.84;107614;1251;110498;-66
2023/12/24 01:50:29;;;;;;;3.50;2.40;;;;;;;-0.89;59.49;99805.09;107620;1251;108387;-66
2023/12/24 01:52:58;;;;;;;5.20;2.00;;;;;;;-0.81;59.48;99807.60;107628;1251;107408;-67
2023/12/24 01:55:27;;;;;;;4.30;1.90;;;;;;;-0.74;58.94;99809.36;107569;1251;96568;-66
2023/12/24 01:57:56;;;;;;;6.60;2.80;;;;;;;-0.67;58.50;99805.74;107649;1251;96426;-67
2023/12/24 02:00:24;;;;;;;8.10;2.60;;;;;;;-0.59;58.26;99805.33;107545;1251;110848;-67
2023/12/24 02:02:55;;;;;;;8.70;3.00;;;;;;;-0.56;57.63;99810.09;107439;1251;108362;-66
2023/12/24 02:05:25;;;;;;;4.80;2.80;;;;;;;-0.56;57.44;99817.52;107555;1251;107695;-66
2023/12/24 02:07:56;;;;;;;8.10;4.30;;;;;;;-0.59;57.74;99819.94;107509;1251;96518;-66
2023/12/24 02:10:24;;;;;;;14.40;5.60;;;;;;;-0.60;57.71;99824.58;107590;1251;97093;-66
2023/12/24 02:12:53;;;;;;;10.00;4.10;;;;;;;-0.62;58.10;99828.39;107695;1256;110361;-68
2023/12/24 02:15:22;;;;;;;10.10;3.70;;;;;;;-0.62;58.11;99826.48;107584;1255;108376;-66
2023/12/24 02:17:52;;;;;;;8.40;3.40;;;;;;;-0.62;58.31;99833.67;107593;1251;107748;-66
2023/12/24 02:20:25;;;;;;;7.50;3.50;;;;;;;-0.61;58.54;99836.11;107465;1251;96574;-67
2023/12/24 02:22:53;;;;;;;13.00;4.10;;;;;;;-0.61;58.54;99831.55;107572;1251;96600;-67
2023/12/24 02:25:23;;;;;;;15.00;5.00;;;;;;;-0.62;59.01;99830.14;107628;1251;109891;-66
2023/12/24 02:28:13;;;;;;;20.60;6.30;;;;;;;-0.61;59.01;99835.04;107695;1251;108580;-67
2023/12/24 02:30:44;;;;;;;23.00;7.20;;;;;;;-0.61;59.28;99840.33;107514;1252;107305;-67
2023/12/24 02:33:16;;;;;;;11.30;5.30;;;;;;;-0.61;59.35;99848.41;107490;1254;96561;-66
2023/12/24 02:35:47;;;;;;;22.50;8.60;;;;;;;-0.59;59.12;99846.73;107521;1250;97074;-66
2023/12/24 02:38:15;;;;;;;16.80;6.20;;;;;;;-0.55;59.15;99845.06;107474;1251;109902;-66
2023/12/24 02:40:43;;;;;;;17.90;7.60;;;;;;;-0.52;59.27;99845.77;107595;1251;108297;-67
2023/12/24 02:43:12;;;;;;;14.00;6.50;;;;;;;-0.49;59.00;99846.33;107589;1251;108590;-66
2023/12/24 02:45:42;;;;;;;16.50;5.70;;;;;;;-0.46;59.08;99847.61;107587;1250;96905;-66
2023/12/24 02:48:11;;;;;;;17.60;6.30;;;;;;;-0.47;59.38;99851.13;107681;1250;96482;-64
2023/12/24 02:50:39;;;;;;;19.70;6.80;;;;;;;-0.46;59.46;99856.74;107584;1256;110418;-66
2023/12/24 02:53:08;;;;;;;14.70;6.40;;;;;;;-0.48;59.59;99859.80;107534;1251;108392;-67
2023/12/24 02:55:36;;;;;;;17.40;6.20;;;;;;;-0.49;59.68;99865.48;107555;1254;108170;-67
2023/12/24 02:58:05;;;;;;;16.10;5.90;;;;;;;-0.49;59.70;99867.46;107609;1251;96512;-67
2023/12/24 03:00:34;;;;;;;17.50;7.20;;;;;;;-0.50;59.92;99865.92;107552;1251;97017;-66
2023/12/24 03:03:04;;;;;;;10.50;5.30;;;;;;;-0.52;59.85;99869.91;107638;1251;110552;-67
2023/12/24 03:05:33;;;;;;;9.00;4.20;;;;;;;-0.52;59.84;99874.51;107670;1251;107110;-66
2023/12/24 03:08:01;;;;;;;11.70;4.90;;;;;;;-0.49;60.08;99883.48;107601;1251;106878;-67
2023/12/24 03:10:29;;;;;;;20.10;7.60;;;;;;;-0.46;60.05;99881.38;107449;1251;96487;-66
2023/12/24 03:12:58;;;;;;;7.80;3.90;;;;;;;-0.47;60.05;99883.20;107604;1251;96493;-67
2023/12/24 03:15:26;;;;;;;8.90;4.30;;;;;;;-0.48;59.97;99883.23;107569;1251;109985;-66
2023/12/24 03:17:54;;;;;;;7.90;3.40;;;;;;;-0.50;60.13;99888.48;107639;1255;106946;-66
2023/12/24 03:20:23;;;;;;;16.70;4.60;;;;;;;-0.56;60.26;99896.18;107524;1254;107775;-66
2023/12/24 03:22:51;;;;;;;9.90;4.00;;;;;;;-0.58;60.54;99901.12;107489;1250;96474;-66
2023/12/24 03:25:21;;;;;;;6.70;3.20;;;;;;;-0.60;60.45;99909.48;107625;1252;96384;-67
2023/12/24 03:27:49;;;;;;;8.30;3.00;;;;;;;-0.63;60.54;99910.16;107648;1253;110049;-67
2023/12/24 03:30:18;;;;;;;7.70;3.90;;;;;;;-0.65;60.72;99919.79;107577;1251;108005;-67
2023/12/24 03:32:46;;;;;;;5.50;2.50;;;;;;;-0.66;60.96;99927.77;107450;1252;107995;-67
2023/12/24 03:35:15;;;;;;;5.40;2.30;;;;;;;-0.68;60.93;99930.68;107538;1255;96533;-67
2023/12/24 03:37:43;;;;;;;6.50;2.40;;;;;;;-0.71;61.34;99934.02;107435;1254;96357;-65
2023/12/24 03:40:12;;;;;;;3.80;2.50;;;;;;;-0.72;61.73;99938.47;107569;1251;110054;-66
2023/12/24 03:42:40;;;;;;;6.50;2.80;;;;;;;-0.71;61.55;99946.33;107608;1251;108404;-67
2023/12/24 03:45:09;;;;;;;5.00;2.80;;;;;;;-0.69;62.12;99959.63;107481;1251;108163;-65
2023/12/24 03:47:38;;;;;;;18.10;5.30;;;;;;;-0.68;62.43;99954.61;107517;1251;96487;-66
2023/12/24 03:50:07;;;;;;;7.70;3.90;;;;;;;-0.65;62.73;99953.96;107578;1251;96417;-67
2023/12/24 03:52:35;;;;;;;6.40;3.20;;;;;;;-0.62;63.26;99949.59;107566;1251;110307;-66
2023/12/24 03:55:04;;;;;;;9.70;4.30;;;;;;;-0.60;62.85;99953.13;107573;1251;108300;-66
2023/12/24 03:57:33;;;;;;;6.50;2.20;;;;;;;-0.56;61.67;99953.27;107632;1251;108737;-66
2023/12/24 04:00:01;;;;;;;12.70;2.50;;;;;;;-0.52;60.09;99948.97;107497;1251;96573;-68
2023/12/24 04:02:32;;;;;;;5.90;2.90;;;;;;;-0.46;59.37;99948.16;107642;1251;96512;-66
2023/12/24 04:05:00;;;;;;;9.50;4.20;;;;;;;-0.39;59.59;99955.52;107546;1251;109227;-65
2023/12/24 04:07:29;;;;;;;8.60;3.50;;;;;;;-0.31;60.42;99954.19;107547;1250;108644;-67
2023/12/24 04:09:57;;;;;;;5.80;2.80;;;;;;;-0.26;60.57;99957.94;107567;1251;107323;-65
2023/12/24 04:12:25;;;;;;;7.80;2.60;;;;;;;-0.21;60.12;99959.95;107604;1251;96367;-67
2023/12/24 04:14:54;;;;;;;5.00;3.00;;;;;;;-0.14;59.91;99962.94;107547;1254;96491;-67
2023/12/24 04:17:22;;;;;;;3.70;2.40;;;;;;;-0.10;58.89;99965.00;107545;1252;110433;-67
2023/12/24 04:19:50;;;;;;;6.60;2.80;;;;;;;-0.07;59.00;99963.75;107662;1253;107618;-67
2023/12/24 04:22:19;;;;;;;7.30;2.80;;;;;;;-0.03;59.20;99968.10;107657;1251;107834;-65
2023/12/24 04:24:47;;;;;;;7.90;2.90;;;;;;;0.01;58.68;99972.84;107528;1251;96499;-65
2023/12/24 04:27:15;;;;;;;7.50;2.70;;;;;;;0.00;58.45;99979.93;107558;1254;97052;-67
2023/12/24 04:29:44;;;;;;;4.10;2.60;;;;;;;-0.02;57.55;99984.58;107518;1254;109999;-66
2023/12/24 04:32:13;;;;;;;3.80;2.20;;;;;;;-0.05;57.12;99989.55;107527;1253;108163;-66
2023/12/24 04:34:41;;;;;;;10.80;2.80;;;;;;;-0.09;56.96;99992.96;107601;1252;108101;-65
2023/12/24 04:37:10;;;;;;;5.00;2.40;;;;;;;-0.11;57.25;99997.84;107439;1254;96502;-66
2023/12/24 04:39:38;;;;;;;8.70;3.20;;;;;;;-0.14;57.06;100002.90;107555;1254;96597;-65
2023/12/24 04:42:07;;;;;;;7.20;3.70;;;;;;;-0.15;57.10;100006.70;107565;1251;108834;-66
2023/12/24 04:44:38;;;;;;;5.50;3.10;;;;;;;-0.14;56.95;100010.02;107595;1253;107294;-66
2023/12/24 04:47:07;;;;;;;6.80;2.80;;;;;;;-0.15;56.76;100009.36;107580;1253;107812;-66
2023/12/24 04:49:37;;;;;;;7.80;2.90;;;;;;;-0.14;57.09;100006.80;107548;1252;96564;-66
2023/12/24 04:52:06;;;;;;;5.20;2.80;;;;;;;-0.13;56.92;100014.52;107585;1251;96583;-66
2023/12/24 04:54:34;;;;;;;5.60;2.80;;;;;;;-0.14;56.83;100017.36;107631;1251;109328;-66
2023/12/24 04:57:03;;;;;;;10.90;2.50;;;;;;;-0.16;56.56;100021.52;107599;1251;109684;-65
2023/12/24 04:59:31;;;;;;;7.70;3.10;;;;;;;-0.18;56.62;100014.93;107506;1250;107524;-66
2023/12/24 05:02:00;;;;;;;4.80;2.40;;;;;;;-0.20;56.39;100018.06;107574;1251;96490;-67
2023/12/24 05:04:32;;;;;;;8.50;2.50;;;;;;;-0.25;56.48;100016.59;107561;1251;96331;-66
2023/12/24 05:07:02;;;;;;;8.70;2.40;;;;;;;-0.29;56.51;100017.86;107573;1254;110483;-67
2023/12/24 05:09:30;;;;;;;7.50;2.60;;;;;;;-0.32;56.77;100022.27;107517;1250;106880;-67
2023/12/24 05:11:58;;;;;;;6.70;2.50;;;;;;;-0.35;56.61;100026.27;107539;1251;107780;-67
2023/12/24 05:14:29;;;;;;;12.80;3.10;;;;;;;-0.36;56.67;100029.36;107615;1251;96478;-67
2023/12/24 05:16:58;;;;;;;9.40;4.30;;;;;;;-0.38;56.76;100033.84;107488;1251;96504;-66
2023/12/24 05:19:26;;;;;;;18.20;6.00;;;;;;;-0.38;56.67;100036.18;107619;1251;111682;-66
2023/12/24 05:21:55;;;;;;;14.10;4.10;;;;;;;-0.38;56.63;100038.09;107566;1251;108097;-66
2023/12/24 05:24:23;;;;;;;11.30;3.70;;;;;;;-0.38;56.56;100044.77;107504;1251;107692;-66
2023/12/24 05:26:52;;;;;;;8.40;3.30;;;;;;;-0.39;56.69;100054.17;107489;1251;96478;-66
2023/12/24 05:29:21;;;;;;;7.40;3.80;;;;;;;-0.40;56.69;100058.13;107673;1251;96370;-66
2023/12/24 05:31:49;;;;;;;9.70;5.30;;;;;;;-0.42;56.92;100057.51;107593;1251;110685;-66
2023/12/24 05:34:19;;;;;;;10.60;5.00;;;;;;;-0.42;56.58;100060.88;107662;1251;108462;-66
2023/12/24 05:36:48;;;;;;;7.80;4.40;;;;;;;-0.44;56.85;100068.34;107488;1251;107129;-66
2023/12/24 05:39:16;;;;;;;4.80;2.80;;;;;;;-0.45;56.63;100074.45;107584;1251;96485;-66
2023/12/24 05:41:45;;;;;;;5.60;2.80;;;;;;;-0.48;56.78;100071.21;107504;1251;97033;-65
2023/12/24 05:44:13;;;;;;;4.30;2.40;;;;;;;-0.50;56.74;100071.48;107654;1251;110786;-66
2023/12/24 05:46:41;;;;;;;10.00;2.60;;;;;;;-0.52;56.59;100080.55;107613;1251;108117;-67
2023/12/24 05:49:10;;;;;;;10.40;2.60;;;;;;;-0.50;56.68;100076.98;107506;1254;109207;-65
2023/12/24 05:51:38;;;;;;;12.60;3.00;;;;;;;-0.49;56.77;100078.51;107553;1252;96644;-65
2023/12/24 05:54:07;;;;;;;12.70;2.80;;;;;;;-0.49;56.84;100080.08;107646;1254;96481;-67
2023/12/24 05:56:35;;;;;;;4.70;2.60;;;;;;;-0.49;56.79;100087.66;107514;1251;112443;-67
2023/12/24 05:59:03;;;;;;;13.00;3.30;;;;;;;-0.52;56.92;100099.25;107606;1251;108346;-66
2023/12/24 06:01:32;;;;;;;14.20;3.70;;;;;;;-0.53;57.01;100103.89;107571;1251;108321;-66
2023/12/24 06:04:00;;;;;;;8.40;3.60;;;;;;;-0.52;57.06;100104.17;107551;1251;96553;-66
2023/12/24 06:06:29;;;;;;;7.20;4.10;;;;;;;-0.49;56.92;100106.49;107555;1251;96670;-66
2023/12/24 06:08:57;;;;;;;11.50;4.60;;;;;;;-0.47;57.28;100110.42;107552;1251;109927;-65
2023/12/24 06:11:26;;;;;;;8.90;3.60;;;;;;;-0.46;57.36;100113.76;107575;1253;108425;-66
2023/12/24 06:13:54;;;;;;;7.80;3.30;;;;;;;-0.44;57.50;100118.23;107570;1251;108887;-67
2023/12/24 06:16:22;;;;;;;7.90;3.60;;;;;;;-0.44;57.91;100121.39;107522;1256;96445;-67
2023/12/24 06:18:51;;;;;;;8.60;4.30;;;;;;;-0.44;57.95;100120.49;107625;1251;96380;-67
2023/12/24 06:21:20;;;;;;;11.10;3.90;;;;;;;-0.42;58.26;100127.10;107610;1251;110701;-69
2023/12/24 06:23:49;;;;;;;8.00;4.20;;;;;;;-0.38;57.75;100130.75;107601;1254;108071;-67
2023/12/24 06:26:18;;;;;;;6.10;3.50;;;;;;;-0.29;57.25;100133.48;107589;1251;108048;-67
2023/12/24 06:28:46;;;;;;;9.70;4.20;;;;;;;-0.21;57.04;100139.19;107536;1251;96480;-67
2023/12/24 06:31:22;;;;;;;9.10;5.90;;;;;;;-0.14;56.88;100143.61;107550;1251;97066;-67
2023/12/24 06:33:51;;;;;;;9.80;4.30;;;;;;;-0.12;57.41;100143.29;107542;1250;109914;-67
2023/12/24 06:36:20;;;;;;;6.70;4.20;;;;;;;-0.11;57.41;100148.70;107493;1253;108407;-66
2023/12/24 06:38:48;;;;;;;5.30;3.10;;;;;;;-0.09;57.61;100149.31;107611;1251;107856;-67
2023/12/24 06:41:17;;;;;;;10.70;3.20;;;;;;;-0.05;56.67;100151.39;107543;1253;96565;-67
2023/12/24 06:43:45;;;;;;;22.90;4.50;;;;;;;0.00;55.79;100154.81;107642;1251;96498;-67
2023/12/24 06:46:14;;;;;;;11.20;4.40;;;;;;;0.07;55.56;100158.84;107630;1254;110261;-68
2023/12/24 06:48:43;;;;;;;6.20;3.70;;;;;;;0.13;55.50;100161.83;107637;1254;107287;-67
2023/12/24 06:51:11;;;;;;;15.40;4.00;;;;;;;0.19;55.09;100158.00;107547;1254;107850;-67
2023/12/24 06:53:40;;;;;;;9.80;3.90;;;;;;;0.24;55.08;100160.59;107551;1251;97144;-67
2023/12/24 06:56:09;;;;;;;12.30;5.10;;;;;;;0.29;54.89;100158.52;107592;1251;97010;-66
2023/12/24 06:58:37;;;;;;;9.00;4.60;;;;;;;0.35;55.11;100163.83;107616;1254;109832;-66
2023/12/24 07:01:06;;;;;;;11.10;4.70;;;;;;;0.41;55.63;100160.84;107589;1253;108567;-66
2023/12/24 07:03:34;;;;;;;14.40;6.20;;;;;;;0.49;55.63;100163.40;107595;1254;108272;-66
2023/12/24 07:06:03;;;;;;;8.80;3.60;;;;;;;0.53;54.77;100165.31;107601;1255;96597;-67
2023/12/24 07:08:32;;;;;;;11.30;3.20;;;;;;;0.55;54.04;100163.62;107573;1254;97023;-65
2023/12/24 07:11:00;;;;;;;8.90;4.40;;;;;;;0.58;54.11;100169.06;107556;1252;109509;-65
2023/12/24 07:13:28;;;;;;;10.30;3.50;;;;;;;0.63;53.91;100172.16;107592;1254;108703;-66
2023/12/24 07:15:57;;;;;;;12.80;3.90;;;;;;;0.67;54.19;100174.79;107620;1254;108523;-67
2023/12/24 07:18:26;;;;;;;7.90;3.60;;;;;;;0.69;54.05;100175.48;107669;1252;97059;-67
2023/12/24 07:20:55;;;;;;;8.00;3.60;;;;;;;0.72;53.98;100181.73;107615;1253;97172;-67
2023/12/24 07:23:23;;;;;;;13.60;3.80;;;;;;;0.75;53.84;100187.90;107645;1251;110187;-67
2023/12/24 07:25:52;;;;;;;7.60;3.50;;;;;;;0.79;53.69;100188.76;107624;1251;108369;-65
2023/12/24 07:28:20;;;;;;;15.40;3.80;;;;;;;0.83;53.57;100189.58;107541;1254;108189;-66
2023/12/24 07:30:49;;;;;;;11.00;3.90;;;;;;;0.87;53.66;100189.15;107516;1254;96482;-67
2023/12/24 07:33:17;;;;;;;12.90;3.90;;;;;;;0.95;53.79;100194.36;107602;1254;96478;-67
2023/12/24 07:35:46;;;;;;;8.40;4.10;;;;;;;1.04;54.14;100197.71;107600;1254;110533;-67
2023/12/24 07:38:14;;;;;;;15.60;4.20;;;;;;;1.14;54.31;100202.09;107614;1253;107981;-66
2023/12/24 07:40:43;;;;;;;8.50;4.00;;;;;;;1.21;54.10;100207.83;107569;1253;108215;-67
2023/12/24 07:43:11;;;;;;;14.30;3.80;;;;;;;1.27;53.62;100210.85;107584;1254;96479;-66
2023/12/24 07:45:39;;;;;;;18.90;3.70;;;;;;;1.32;53.58;100210.75;107585;1254;96558;-66
2023/12/24 07:48:13;;;;;;;15.30;4.20;;;;;;;1.40;53.88;100205.89;107615;1254;110854;-67
2023/12/24 07:50:43;;;;;;;24.20;4.90;;;;;;;1.48;53.79;100208.59;107598;1253;108379;-67
2023/12/24 07:53:11;;;;;;;18.70;4.60;;;;;;;1.53;53.86;100211.61;107596;1252;108205;-66
2023/12/24 07:55:40;;;;;;;13.10;3.70;;;;;;;1.60;53.70;100213.20;107565;1251;96548;-65
2023/12/24 07:58:09;;;;;;;10.10;4.20;;;;;;;1.64;53.13;100214.01;107601;1253;96581;-68
2023/12/24 08:00:37;;;;;;;9.20;3.90;;;;;;;1.71;53.42;100217.48;107576;1254;109242;-66
2023/12/24 08:03:05;;;;;;;6.40;3.20;;;;;;;1.80;52.93;100220.63;107556;1251;107291;-66
2023/12/24 08:05:34;;;;;;;16.50;4.20;;;;;;;1.84;51.89;100224.98;107575;1251;108558;-67
2023/12/24 08:08:03;;;;;;;16.20;5.70;;;;;;;1.86;51.51;100233.14;107614;1251;96625;-67
2023/12/24 08:10:31;;;;;;;19.00;5.80;;;;;;;1.87;51.52;100239.09;107671;1251;96389;-67
2023/12/24 08:12:59;;;;;;;9.50;4.90;;;;;;;1.86;51.42;100232.84;107606;1251;110051;-66
2023/12/24 08:15:39;;;;;;;15.00;5.50;;;;;;;2.14;51.46;100223.12;107587;1254;108288;-66
2023/12/24 08:18:07;;;;;;;16.50;5.80;;;;;;;2.25;51.47;100214.87;107617;1254;107149;-66
2023/12/24 08:20:36;;;;;;;14.10;4.80;;;;;;;2.76;51.45;100215.15;107580;1256;96451;-64
2023/12/24 08:23:07;;;;;;;16.70;5.20;;;;;;;3.54;50.60;100215.90;107604;1254;97020;-66
2023/12/24 08:25:35;;;;;;;15.10;5.80;;;;;;;4.06;49.02;100218.84;107603;1251;109316;-66
2023/12/24 08:28:06;;;;;;;15.70;4.80;;;;;;;3.90;49.61;100220.66;107553;1251;107634;-65
2023/12/24 08:30:34;;;;;;;16.50;6.00;;;;;;;3.81;49.12;100224.50;107557;1254;106903;-66
2023/12/24 08:33:02;;;;;;;25.40;5.80;;;;;;;3.65;48.87;100222.40;107653;1251;96418;-66
2023/12/24 08:35:33;;;;;;;13.30;5.50;;;;;;;3.61;49.75;100220.72;107573;1251;96375;-66
2023/12/24 08:38:01;;;;;;;16.30;4.30;;;;;;;3.64;48.96;100211.89;107631;1251;109488;-66
2023/12/24 08:40:29;;;;;;;18.20;4.40;;;;;;;4.10;48.11;100212.77;107580;1251;108754;-66
2023/12/24 08:42:58;;;;;;;12.20;3.20;;;;;;;4.12;47.75;100208.38;106856;1252;951728;-65
2023/12/24 08:45:27;;;;;;;12.50;3.50;;;;;;;3.96;46.72;100214.45;107392;1254;96467;-66
2023/12/24 08:47:56;;;;;;;12.60;7.50;;;;;;;4.59;45.45;100211.40;107604;1251;96543;-65
2023/12/24 08:50:24;;;;;;;6.90;3.80;;;;;;;5.27;45.07;100204.28;107593;1251;109594;-66
2023/12/24 08:52:52;;;;;;;11.10;3.90;;;;;;;5.26;46.45;100202.60;107601;1251;108876;-66
2023/12/24 08:55:22;;;;;;;15.10;3.90;;;;;;;5.28;45.09;100199.92;107544;1254;107672;-65
2023/12/24 08:57:51;;;;;;;14.40;4.00;;;;;;;5.39;45.44;100193.81;107593;1255;96482;-68
2023/12/24 09:00:20;;;;;;;13.50;3.60;;;;;;;5.43;45.42;100189.23;107562;1253;97023;-67
2023/12/24 09:02:48;;;;;;;8.20;3.30;;;;;;;5.42;44.40;100188.25;107670;1251;109370;-67
2023/12/24 09:05:20;;;;;;;10.60;3.80;;;;;;;5.41;44.57;100186.33;107629;1254;108646;-66
2023/12/24 09:07:49;;;;;;;7.90;2.70;;;;;;;5.34;44.76;100183.64;107600;1252;108127;-66
2023/12/24 09:10:17;;;;;;;6.80;2.60;;;;;;;5.27;44.72;100182.59;107572;1251;96502;-67
2023/12/24 09:12:45;;;;;;;10.80;2.70;;;;;;;5.87;44.48;100179.26;107508;1254;96469;-66
2023/12/24 09:15:14;;;;;;;4.60;2.70;;;;;;;6.38;43.41;100180.02;107614;1251;109862;-66
2023/12/24 09:17:42;;;;;;;4.10;2.30;;;;;;;7.42;42.49;100174.38;107604;1253;107436;-66
2023/12/24 09:20:11;;;;;;;6.90;2.80;;;;;;;8.37;40.62;100171.38;107597;1254;107855;-66
2023/12/24 09:22:39;;;;;;;11.70;2.30;;;;;;;8.55;39.65;100171.11;107595;1251;96439;-66
2023/12/24 09:25:08;;;;;;;4.40;1.50;;;;;;;8.30;38.13;100175.39;107543;1254;96497;-66
2023/12/24 09:27:36;;;;;;;8.20;1.90;;;;;;;8.30;37.86;100181.67;107626;1250;110949;-66
2023/12/24 09:30:05;;;;;;;5.10;2.10;;;;;;;8.07;37.48;100184.89;107645;1251;108570;-67
2023/12/24 09:32:34;;;;;;;3.20;1.80;;;;;;;7.79;37.27;100188.79;107557;1251;106946;-67
2023/12/24 09:35:03;;;;;;;5.00;2.30;;;;;;;7.50;37.68;100193.20;107596;1251;96509;-67
2023/12/24 09:37:31;;;;;;;6.20;2.20;;;;;;;7.35;37.58;100188.70;107622;1251;96385;-67
2023/12/24 09:40:00;;;;;;;4.60;2.40;;;;;;;7.23;37.20;100192.45;107531;1254;110643;-67
2023/12/24 09:42:29;;;;;;;9.00;4.40;;;;;;;7.01;36.68;100191.76;107607;1251;108257;-67
2023/12/24 09:44:57;;;;;;;7.20;3.00;;;;;;;6.64;35.91;100195.10;107614;1254;108545;-67
2023/12/24 09:47:26;;;;;;;12.80;3.30;;;;;;;6.38;37.14;100193.80;107630;1254;96533;-67
2023/12/24 09:49:54;;;;;;;7.40;2.20;;;;;;;6.20;37.23;100193.42;107621;1254;97012;-67
2023/12/24 09:52:24;;;;;;;7.20;2.00;;;;;;;5.96;36.72;100202.20;107587;1255;110156;-68
2023/12/24 09:54:53;;;;;;;4.70;1.70;;;;;;;5.71;37.31;100203.83;107627;1255;107859;-66
2023/12/24 09:57:22;;;;;;;19.70;4.30;;;;;;;5.49;37.21;100197.48;107555;1254;108268;-65
2023/12/24 09:59:51;;;;;;;5.50;2.70;;;;;;;5.30;37.45;100200.70;107574;1253;96485;-67
2023/12/24 10:02:19;;;;;;;11.20;3.60;;;;;;;5.18;38.38;100201.58;107573;1251;97018;-67
2023/12/24 10:04:47;;;;;;;16.40;4.60;;;;;;;5.17;39.16;100202.86;107527;1251;110727;-66
2023/12/24 10:07:16;;;;;;;10.20;2.90;;;;;;;5.15;39.29;100207.50;107582;1251;108438;-65
2023/12/24 10:09:48;;;;;;;14.90;4.30;;;;;;;5.13;39.95;100202.80;107564;1251;107953;-67
2023/12/24 10:12:18;;;;;;;16.50;4.40;;;;;;;5.17;39.97;100211.09;107566;1252;96596;-67
2023/12/24 10:14:58;;;;;;;45.40;3.90;;;;;;;5.14;39.76;100209.49;107653;1250;96494;-65
2023/12/24 10:17:31;;;;;;;7.20;2.30;;;;;;;5.10;39.58;100214.23;107555;1251;108897;-65
2023/12/24 10:20:06;;;;;;;5.50;1.80;;;;;;;5.01;38.94;100221.14;107557;1254;108214;-65
2023/12/24 10:22:35;;;;;;;5.50;2.60;;;;;;;4.91;39.37;100216.60;107536;1254;107919;-65
2023/12/24 10:25:05;;;;;;;9.80;2.40;;;;;;;4.86;39.52;100213.02;107527;1256;96504;-66
2023/12/24 10:27:34;;;;;;;13.70;2.20;;;;;;;4.83;39.55;100217.67;107526;1253;96493;-66
2023/12/24 10:30:12;;;;;;;5.30;2.30;;;;;;;4.79;39.67;100221.48;107539;1251;110971;-66
2023/12/24 10:32:43;;;;;;;3.20;1.40;;;;;;;4.79;39.46;100218.52;107486;1254;108718;-66
2023/12/24 10:35:22;;;;;;;9.70;2.10;;;;;;;4.78;39.11;100218.39;107552;1254;108871;-65
2023/12/24 10:37:50;;;;;;;9.20;2.30;;;;;;;4.88;39.74;100216.95;107604;1254;96467;-67
2023/12/24 10:40:18;;;;;;;2.70;2.10;;;;;;;5.01;39.40;100214.42;107601;1254;96496;-66
2023/12/24 10:42:46;;;;;;;5.60;2.10;;;;;;;5.07;39.02;100214.50;107649;1254;110912;-65
2023/12/24 10:45:16;;;;;;;12.80;2.80;;;;;;;5.18;39.79;100211.02;107591;1254;107699;-68
2023/12/24 10:47:44;;;;;;;7.00;2.60;;;;;;;5.32;39.87;100215.30;107600;1253;106720;-67
2023/12/24 10:50:13;;;;;;;5.20;2.50;;;;;;;5.47;39.74;100208.46;107598;1254;96500;-67
2023/12/24 10:52:41;;;;;;;15.00;7.80;;;;;;;5.55;38.71;100203.05;107588;1254;96465;-65
2023/12/24 10:55:10;;;;;;;6.40;3.20;;;;;;;5.56;38.76;100200.12;107612;1254;111022;-66
2023/12/24 10:58:03;;;;;;;8.10;3.30;;;;;;;5.65;39.38;100203.74;107547;1250;108103;-67
2023/12/24 11:00:32;;;;;;;11.90;4.00;;;;;;;5.73;39.12;100202.75;107587;1255;108479;-66
2023/12/24 11:03:00;;;;;;;7.10;3.60;;;;;;;5.75;39.33;100198.36;107546;1252;96693;-67
2023/12/24 11:05:48;;;;;;;6.10;2.80;;;;;;;5.81;39.61;100200.50;107608;1251;97232;-67
2023/12/24 11:08:23;;;;;;;3.80;2.40;;;;;;;5.96;39.57;100200.78;107566;1254;110361;-65
2023/12/24 11:10:58;;;;;;;4.40;2.20;;;;;;;6.55;39.62;100196.90;107580;1254;108732;-66
2023/12/24 11:13:30;;;;;;;7.10;2.60;;;;;;;7.94;38.94;100202.80;107562;1251;108068;-68
2023/12/24 11:16:00;;;;;;;5.20;3.00;;;;;;;8.88;38.36;100192.76;107526;1251;96487;-67
2023/12/24 11:18:47;;;;;;;6.40;2.70;;;;;;;9.23;36.47;100205.91;107544;1251;96577;-65
2023/12/24 11:21:19;;;;;;;4.60;2.40;;;;;;;10.08;35.24;100197.84;107559;1254;110837;-67
2023/12/24 11:24:11;;;;;;;5.50;2.40;;;;;;;9.97;33.28;100213.14;107628;1251;107851;-67
2023/12/24 11:26:53;;;;;;;7.80;2.20;;;;;;;9.39;33.64;100209.81;107553;1251;108623;-66